IGO6817 VOMM-VOBL
Flight info
| Callsign | IGO6817 |
|---|---|
| Flight time | 0h 29m |
| Altitude | 20000 |
| Route | MMV W117 BIA |
| Aircraft | A320/M-SDE3FGHIRWY/LB1 |
Departure
| Time | 2026-04-29 10:54 |
|---|---|
| Airport | Chennai International Airport (VOMM) |
Arrival
| Time | 2026-04-29 11:23 |
|---|---|
| Airport | Kempegowda International Airport Bengaluru (VOBL) |
| Time | Latitude | Longitude | Altitude | Speed | Heading |
|---|---|---|---|---|---|
| 2026-04-29 10:35 | 12.98449 | 80.16566 | 56 ft | 0 kts | 159° |
| 2026-04-29 10:45 | 12.98455 | 80.16563 | 50 ft | 4 kts | 159° |
| 2026-04-29 10:45 | 12.98480 | 80.16554 | 50 ft | 4 kts | 148° |
| 2026-04-29 10:45 | 12.98497 | 80.16535 | 54 ft | 4 kts | 104° |
| 2026-04-29 10:45 | 12.98497 | 80.16511 | 51 ft | 2 kts | 70° |
| 2026-04-29 10:46 | 12.98496 | 80.16509 | 50 ft | 1 kts | 69° |
| 2026-04-29 10:48 | 12.98497 | 80.16512 | 51 ft | 1 kts | 69° |
| 2026-04-29 10:48 | 12.98504 | 80.16530 | 50 ft | 4 kts | 69° |
| 2026-04-29 10:48 | 12.98517 | 80.16565 | 52 ft | 6 kts | 69° |
| 2026-04-29 10:48 | 12.98535 | 80.16614 | 51 ft | 9 kts | 69° |
| 2026-04-29 10:49 | 12.98559 | 80.16678 | 55 ft | 11 kts | 69° |
| 2026-04-29 10:49 | 12.98589 | 80.16753 | 50 ft | 11 kts | 58° |
| 2026-04-29 10:49 | 12.98660 | 80.16753 | 54 ft | 11 kts | 338° |
| 2026-04-29 10:49 | 12.98738 | 80.16732 | 55 ft | 12 kts | 13° |
| 2026-04-29 10:50 | 12.98783 | 80.16807 | 49 ft | 14 kts | 68° |
| 2026-04-29 10:50 | 12.98820 | 80.16905 | 55 ft | 16 kts | 69° |
| 2026-04-29 10:50 | 12.98863 | 80.17019 | 55 ft | 18 kts | 68° |
| 2026-04-29 10:50 | 12.98911 | 80.17146 | 49 ft | 20 kts | 69° |
| 2026-04-29 10:51 | 12.98973 | 80.17279 | 55 ft | 21 kts | 62° |
| 2026-04-29 10:51 | 12.99021 | 80.17397 | 51 ft | 18 kts | 70° |
| 2026-04-29 10:51 | 12.99066 | 80.17524 | 53 ft | 20 kts | 69° |
| 2026-04-29 10:51 | 12.99118 | 80.17659 | 52 ft | 15 kts | 69° |
| 2026-04-29 10:52 | 12.99178 | 80.17698 | 50 ft | 4 kts | 338° |
| 2026-04-29 10:52 | 12.99209 | 80.17685 | 50 ft | 6 kts | 338° |
| 2026-04-29 10:52 | 12.99248 | 80.17669 | 54 ft | 6 kts | 338° |
| 2026-04-29 10:52 | 12.99288 | 80.17643 | 55 ft | 8 kts | 300° |
| 2026-04-29 10:53 | 12.99285 | 80.17613 | 58 ft | 1 kts | 248° |
| 2026-04-29 10:53 | 12.99249 | 80.17521 | 53 ft | 44 kts | 249° |
| 2026-04-29 10:53 | 12.99054 | 80.16999 | 51 ft | 109 kts | 249° |
| 2026-04-29 10:53 | 12.98721 | 80.16134 | 55 ft | 154 kts | 247° |
| 2026-04-29 10:54 | 12.98341 | 80.15042 | 612 ft | 156 kts | 249° |
| 2026-04-29 10:54 | 12.97989 | 80.13993 | 1259 ft | 158 kts | 244° |
| 2026-04-29 10:54 | 12.97593 | 80.12870 | 1514 ft | 178 kts | 246° |
| 2026-04-29 10:54 | 12.97117 | 80.11607 | 1730 ft | 202 kts | 245° |
| 2026-04-29 10:55 | 12.96550 | 80.10197 | 2024 ft | 226 kts | 244° |
| 2026-04-29 10:55 | 12.95921 | 80.08629 | 2353 ft | 249 kts | 244° |
| 2026-04-29 10:55 | 12.95235 | 80.06922 | 2815 ft | 265 kts | 249° |
| 2026-04-29 10:55 | 12.94956 | 80.05041 | 3639 ft | 273 kts | 273° |
| 2026-04-29 10:56 | 12.95422 | 80.03141 | 4517 ft | 276 kts | 285° |
| 2026-04-29 10:56 | 12.96012 | 80.01264 | 5378 ft | 278 kts | 287° |
| 2026-04-29 10:56 | 12.96610 | 79.99364 | 6179 ft | 282 kts | 288° |
| 2026-04-29 10:56 | 12.97215 | 79.97434 | 6904 ft | 287 kts | 288° |
| 2026-04-29 10:57 | 12.97824 | 79.95468 | 7611 ft | 292 kts | 288° |
| 2026-04-29 10:57 | 12.98443 | 79.93463 | 8307 ft | 298 kts | 288° |
| 2026-04-29 10:57 | 12.99071 | 79.91415 | 9014 ft | 304 kts | 288° |
| 2026-04-29 10:57 | 12.99715 | 79.89346 | 9759 ft | 306 kts | 289° |
| 2026-04-29 10:58 | 13.00384 | 79.87201 | 10065 ft | 327 kts | 289° |
| 2026-04-29 10:58 | 13.01083 | 79.84951 | 10285 ft | 346 kts | 289° |
| 2026-04-29 10:58 | 13.01818 | 79.82568 | 10785 ft | 354 kts | 288° |
| 2026-04-29 10:58 | 13.02567 | 79.80157 | 11446 ft | 356 kts | 289° |
| 2026-04-29 10:59 | 13.03323 | 79.77726 | 12091 ft | 359 kts | 289° |
| 2026-04-29 10:59 | 13.04091 | 79.75281 | 12789 ft | 361 kts | 289° |
| 2026-04-29 10:59 | 13.04862 | 79.72825 | 13437 ft | 363 kts | 289° |
| 2026-04-29 10:59 | 13.05641 | 79.70349 | 14025 ft | 366 kts | 288° |
| 2026-04-29 11:00 | 13.06417 | 79.67861 | 14611 ft | 367 kts | 289° |
| 2026-04-29 11:00 | 13.06935 | 79.66203 | 15019 ft | 368 kts | 289° |
| 2026-04-29 11:00 | 13.07715 | 79.63706 | 15635 ft | 368 kts | 289° |
| 2026-04-29 11:00 | 13.08500 | 79.61204 | 16267 ft | 369 kts | 289° |
| 2026-04-29 11:01 | 13.09284 | 79.58697 | 16877 ft | 370 kts | 289° |
| 2026-04-29 11:01 | 13.10080 | 79.56179 | 17446 ft | 372 kts | 289° |
| 2026-04-29 11:01 | 13.10882 | 79.53652 | 18016 ft | 374 kts | 289° |
| 2026-04-29 11:01 | 13.11690 | 79.51113 | 18494 ft | 376 kts | 289° |
| 2026-04-29 11:02 | 13.12511 | 79.48559 | 18964 ft | 378 kts | 289° |
| 2026-04-29 11:02 | 13.13346 | 79.45990 | 19429 ft | 380 kts | 288° |
| 2026-04-29 11:02 | 13.14177 | 79.43403 | 19673 ft | 382 kts | 288° |
| 2026-04-29 11:02 | 13.14994 | 79.40787 | 19741 ft | 392 kts | 287° |
| 2026-04-29 11:03 | 13.15820 | 79.38061 | 19750 ft | 407 kts | 287° |
| 2026-04-29 11:03 | 13.16661 | 79.35232 | 19749 ft | 422 kts | 287° |
| 2026-04-29 11:03 | 13.17509 | 79.32335 | 19747 ft | 426 kts | 287° |
| 2026-04-29 11:03 | 13.18359 | 79.29416 | 19747 ft | 427 kts | 287° |
| 2026-04-29 11:04 | 13.19212 | 79.26492 | 19758 ft | 428 kts | 287° |
| 2026-04-29 11:04 | 13.20073 | 79.23568 | 19758 ft | 428 kts | 287° |
| 2026-04-29 11:04 | 13.20942 | 79.20636 | 19758 ft | 429 kts | 287° |
| 2026-04-29 11:04 | 13.21809 | 79.17710 | 19758 ft | 428 kts | 287° |
| 2026-04-29 11:05 | 13.22674 | 79.14787 | 19763 ft | 429 kts | 287° |
| 2026-04-29 11:05 | 13.23536 | 79.11859 | 19780 ft | 428 kts | 287° |
| 2026-04-29 11:05 | 13.24395 | 79.08931 | 19779 ft | 428 kts | 286° |
| 2026-04-29 11:05 | 13.24962 | 79.05965 | 19773 ft | 418 kts | 275° |
| 2026-04-29 11:06 | 13.25161 | 79.03057 | 19780 ft | 398 kts | 274° |
| 2026-04-29 11:06 | 13.25344 | 79.00285 | 19781 ft | 382 kts | 274° |
| 2026-04-29 11:06 | 13.25519 | 78.97584 | 19802 ft | 378 kts | 274° |
| 2026-04-29 11:06 | 13.25689 | 78.94899 | 19827 ft | 376 kts | 274° |
| 2026-04-29 11:07 | 13.25857 | 78.92221 | 19827 ft | 376 kts | 274° |
| 2026-04-29 11:07 | 13.26026 | 78.89546 | 19827 ft | 375 kts | 274° |
| 2026-04-29 11:07 | 13.26197 | 78.86873 | 19827 ft | 374 kts | 274° |
| 2026-04-29 11:07 | 13.26364 | 78.84263 | 19775 ft | 360 kts | 274° |
| 2026-04-29 11:08 | 13.26525 | 78.81736 | 19571 ft | 351 kts | 274° |
| 2026-04-29 11:08 | 13.26685 | 78.79255 | 19198 ft | 347 kts | 275° |
| 2026-04-29 11:08 | 13.26843 | 78.76788 | 18817 ft | 345 kts | 275° |
| 2026-04-29 11:08 | 13.26999 | 78.74336 | 18425 ft | 343 kts | 275° |
| 2026-04-29 11:09 | 13.27152 | 78.71896 | 18041 ft | 342 kts | 275° |
| 2026-04-29 11:09 | 13.27306 | 78.69469 | 17601 ft | 340 kts | 275° |
| 2026-04-29 11:09 | 13.27460 | 78.67055 | 17179 ft | 339 kts | 275° |
| 2026-04-29 11:09 | 13.27612 | 78.64645 | 16750 ft | 338 kts | 275° |
| 2026-04-29 11:10 | 13.27763 | 78.62246 | 16343 ft | 336 kts | 275° |
| 2026-04-29 11:10 | 13.27914 | 78.59854 | 15940 ft | 335 kts | 274° |
| 2026-04-29 11:10 | 13.28065 | 78.57466 | 15523 ft | 335 kts | 275° |
| 2026-04-29 11:10 | 13.28216 | 78.55086 | 15112 ft | 334 kts | 274° |
| 2026-04-29 11:11 | 13.28365 | 78.52704 | 14712 ft | 334 kts | 274° |
| 2026-04-29 11:11 | 13.28512 | 78.50328 | 14300 ft | 335 kts | 274° |
| 2026-04-29 11:11 | 13.28660 | 78.47945 | 13943 ft | 334 kts | 274° |
| 2026-04-29 11:11 | 13.28807 | 78.45569 | 13553 ft | 334 kts | 274° |
| 2026-04-29 11:12 | 13.28952 | 78.43194 | 13119 ft | 333 kts | 274° |
| 2026-04-29 11:12 | 13.29100 | 78.40824 | 12728 ft | 332 kts | 274° |
| 2026-04-29 11:12 | 13.29248 | 78.38470 | 12399 ft | 329 kts | 274° |
| 2026-04-29 11:12 | 13.29393 | 78.36136 | 12056 ft | 326 kts | 273° |
| 2026-04-29 11:13 | 13.29534 | 78.33820 | 11717 ft | 324 kts | 273° |
| 2026-04-29 11:13 | 13.29675 | 78.31523 | 11384 ft | 321 kts | 273° |
| 2026-04-29 11:13 | 13.29817 | 78.29245 | 11052 ft | 319 kts | 273° |
| 2026-04-29 11:13 | 13.29958 | 78.26977 | 10723 ft | 318 kts | 274° |
| 2026-04-29 11:14 | 13.30098 | 78.24721 | 10411 ft | 315 kts | 273° |
| 2026-04-29 11:14 | 13.30237 | 78.22480 | 10093 ft | 313 kts | 273° |
| 2026-04-29 11:14 | 13.30262 | 78.20256 | 9769 ft | 310 kts | 260° |
| 2026-04-29 11:14 | 13.29528 | 78.18203 | 9424 ft | 306 kts | 239° |
| 2026-04-29 11:15 | 13.28525 | 78.16305 | 9074 ft | 297 kts | 242° |
| 2026-04-29 11:15 | 13.27625 | 78.14443 | 8728 ft | 285 kts | 243° |
| 2026-04-29 11:15 | 13.26786 | 78.12638 | 8393 ft | 276 kts | 244° |
| 2026-04-29 11:15 | 13.25978 | 78.10883 | 8054 ft | 268 kts | 243° |
| 2026-04-29 11:16 | 13.25193 | 78.09185 | 7746 ft | 260 kts | 244° |
| 2026-04-29 11:16 | 13.24421 | 78.07540 | 7416 ft | 252 kts | 243° |
| 2026-04-29 11:16 | 13.23667 | 78.05946 | 7094 ft | 245 kts | 242° |
| 2026-04-29 11:16 | 13.22933 | 78.04400 | 6769 ft | 238 kts | 242° |
| 2026-04-29 11:17 | 13.22232 | 78.02890 | 6456 ft | 233 kts | 243° |
| 2026-04-29 11:17 | 13.21552 | 78.01364 | 6131 ft | 236 kts | 244° |
| 2026-04-29 11:17 | 13.20882 | 77.99851 | 6012 ft | 228 kts | 244° |
| 2026-04-29 11:17 | 13.20437 | 77.98349 | 6002 ft | 216 kts | 266° |
| 2026-04-29 11:18 | 13.20446 | 77.96823 | 6012 ft | 213 kts | 269° |
| 2026-04-29 11:18 | 13.20469 | 77.95311 | 6040 ft | 210 kts | 270° |
| 2026-04-29 11:18 | 13.20486 | 77.93814 | 6040 ft | 210 kts | 270° |
| 2026-04-29 11:18 | 13.20501 | 77.92304 | 6047 ft | 211 kts | 270° |
| 2026-04-29 11:19 | 13.20515 | 77.90797 | 6038 ft | 211 kts | 269° |
| 2026-04-29 11:19 | 13.20529 | 77.89318 | 5956 ft | 205 kts | 269° |
| 2026-04-29 11:19 | 13.20543 | 77.87875 | 5772 ft | 200 kts | 269° |
| 2026-04-29 11:19 | 13.20556 | 77.86468 | 5517 ft | 194 kts | 270° |
| 2026-04-29 11:20 | 13.20569 | 77.85117 | 5274 ft | 186 kts | 270° |
| 2026-04-29 11:20 | 13.20581 | 77.83800 | 5052 ft | 183 kts | 270° |
| 2026-04-29 11:20 | 13.20593 | 77.82510 | 4834 ft | 176 kts | 270° |
| 2026-04-29 11:20 | 13.20604 | 77.81298 | 4612 ft | 165 kts | 270° |
| 2026-04-29 11:21 | 13.20614 | 77.80163 | 4394 ft | 155 kts | 270° |
| 2026-04-29 11:21 | 13.20624 | 77.79079 | 4194 ft | 151 kts | 270° |
| 2026-04-29 11:21 | 13.20634 | 77.78011 | 4002 ft | 147 kts | 270° |
| 2026-04-29 11:21 | 13.20643 | 77.76966 | 3817 ft | 147 kts | 271° |
| 2026-04-29 11:22 | 13.20652 | 77.75904 | 3623 ft | 150 kts | 272° |
| 2026-04-29 11:22 | 13.20662 | 77.74811 | 3436 ft | 156 kts | 273° |
| 2026-04-29 11:22 | 13.20673 | 77.73673 | 3249 ft | 161 kts | 274° |
| 2026-04-29 11:22 | 13.20693 | 77.72526 | 3111 ft | 161 kts | 274° |
| 2026-04-29 11:23 | 13.20699 | 77.71407 | 3013 ft | 144 kts | 272° |
| 2026-04-29 11:23 | 13.20707 | 77.70546 | 3011 ft | 96 kts | 271° |
| 2026-04-29 11:23 | 13.20709 | 77.70038 | 3011 ft | 48 kts | 271° |
| 2026-04-29 11:23 | 13.20712 | 77.69731 | 3011 ft | 41 kts | 269° |
| 2026-04-29 11:24 | 13.20653 | 77.69519 | 3014 ft | 25 kts | 243° |
| 2026-04-29 11:24 | 13.20602 | 77.69420 | 3011 ft | 15 kts | 243° |
| 2026-04-29 11:24 | 13.20546 | 77.69335 | 3011 ft | 14 kts | 216° |
| 2026-04-29 11:24 | 13.20454 | 77.69333 | 3011 ft | 13 kts | 179° |
| 2026-04-29 11:25 | 13.20359 | 77.69331 | 3011 ft | 14 kts | 179° |
| 2026-04-29 11:25 | 13.20266 | 77.69349 | 3011 ft | 14 kts | 138° |
| 2026-04-29 11:25 | 13.20255 | 77.69440 | 3011 ft | 13 kts | 89° |
| 2026-04-29 11:25 | 13.20255 | 77.69536 | 3011 ft | 14 kts | 90° |
| 2026-04-29 11:26 | 13.20252 | 77.69756 | 3011 ft | 17 kts | 91° |
| 2026-04-29 11:26 | 13.20251 | 77.69879 | 3011 ft | 18 kts | 90° |
| 2026-04-29 11:26 | 13.20250 | 77.70009 | 3011 ft | 19 kts | 90° |
| 2026-04-29 11:27 | 13.20247 | 77.70069 | 3011 ft | 5 kts | 120° |
| 2026-04-29 11:27 | 13.20213 | 77.70075 | 3011 ft | 5 kts | 181° |
| 2026-04-29 11:27 | 13.20176 | 77.70075 | 3011 ft | 4 kts | 180° |
| 2026-04-29 11:27 | 13.20168 | 77.70075 | 3011 ft | 0 kts | 180° |